Time;durP1;ratioP1;P1;durP2;ratioP2;P2;SDS_P1;SDS_P2;PMS_P1;PMS_P2;Temp;Humidity;BMP_temperature;BMP_pressure;BME280_temperature;BME280_humidity;BME280_pressure;Samples;Min_cycle;Max_cycle;Signal;HPM_P1;HPM_P2
2022/04/18 00:02:08;;;;;;;0.50;0.50;;;6.40;99.90;;;;;;4974319;28;20062;-71
2022/04/18 00:04:34;;;;;;;0.47;0.47;;;6.40;99.90;;;;;;4974349;28;20022;-71
2022/04/18 00:07:03;;;;;;;0.77;0.50;;;6.40;99.90;;;;;;4974311;28;20023;-71
2022/04/18 00:09:30;;;;;;;0.40;0.40;;;6.40;99.90;;;;;;4974791;28;20027;-71
2022/04/18 00:11:57;;;;;;;0.40;0.40;;;6.30;99.90;;;;;;4974527;28;20027;-71
2022/04/18 00:14:24;;;;;;;0.43;0.40;;;6.20;99.90;;;;;;4974308;28;20041;-71
2022/04/18 00:16:50;;;;;;;0.40;0.40;;;6.20;99.90;;;;;;4974289;28;20479;-71
2022/04/18 00:19:15;;;;;;;0.40;0.40;;;6.10;99.90;;;;;;4974215;28;20039;-71
2022/04/18 00:21:41;;;;;;;1.48;0.50;;;6.20;99.90;;;;;;4974333;28;20431;-71
2022/04/18 00:24:10;;;;;;;0.55;0.40;;;6.10;99.90;;;;;;4974101;28;20023;-70
2022/04/18 00:26:39;;;;;;;0.40;0.40;;;6.00;99.90;;;;;;4974076;28;20050;-70
2022/04/18 00:29:05;;;;;;;1.10;0.50;;;6.00;99.90;;;;;;4973839;28;20023;-70
2022/04/18 00:31:31;;;;;;;0.40;0.40;;;6.00;99.90;;;;;;4973963;28;20025;-71
2022/04/18 00:33:57;;;;;;;0.63;0.50;;;5.90;99.90;;;;;;4974271;28;20027;-76
2022/04/18 00:36:23;;;;;;;0.57;0.40;;;5.90;99.90;;;;;;4973676;28;20577;-78
2022/04/18 00:38:48;;;;;;;0.40;0.40;;;6.00;99.90;;;;;;4973765;28;20101;-78
2022/04/18 00:41:14;;;;;;;0.40;0.40;;;6.00;99.90;;;;;;4973806;28;20395;-78
2022/04/18 00:43:44;;;;;;;0.63;0.47;;;6.10;99.90;;;;;;4974101;28;20019;-78
2022/04/18 00:46:11;;;;;;;0.55;0.55;;;6.10;99.90;;;;;;4973628;28;20039;-78
2022/04/18 00:48:37;;;;;;;0.50;0.43;;;6.10;99.90;;;;;;4973724;28;20027;-78
2022/04/18 00:51:04;;;;;;;4.38;0.60;;;6.10;99.90;;;;;;4973653;28;20100;-79
2022/04/18 00:53:32;;;;;;;0.40;0.40;;;6.00;99.90;;;;;;4973588;28;20506;-78
2022/04/18 00:55:58;;;;;;;0.95;0.50;;;6.00;99.90;;;;;;4973609;28;20047;-78
2022/04/18 00:58:24;;;;;;;0.77;0.40;;;6.00;99.90;;;;;;4973447;28;20050;-78
2022/04/18 01:00:51;;;;;;;0.30;0.30;;;6.00;99.90;;;;;;4973729;28;20561;-77
2022/04/18 01:03:19;;;;;;;0.80;0.40;;;6.00;99.90;;;;;;4973284;28;20105;-78
2022/04/18 01:05:46;;;;;;;0.50;0.43;;;5.90;99.90;;;;;;4973481;28;20034;-77
2022/04/18 01:08:12;;;;;;;0.47;0.45;;;5.90;99.90;;;;;;4973187;28;20023;-76
2022/04/18 01:10:38;;;;;;;0.40;0.40;;;5.90;99.90;;;;;;4973385;28;20033;-76
2022/04/18 01:13:05;;;;;;;0.57;0.50;;;5.90;99.90;;;;;;4973172;28;20093;-77
2022/04/18 01:15:31;;;;;;;1.05;0.40;;;5.90;99.90;;;;;;4973300;28;20030;-76
2022/04/18 01:17:57;;;;;;;0.45;0.45;;;5.80;99.90;;;;;;4973271;28;20076;-76
2022/04/18 01:20:24;;;;;;;0.40;0.40;;;5.80;99.90;;;;;;4972990;28;20121;-78
2022/04/18 01:22:52;;;;;;;7.00;1.15;;;5.80;99.90;;;;;;4973141;28;20050;-78
2022/04/18 01:30:54;;;;;;;0.50;0.50;;;5.80;99.90;;;;;;4973501;28;20033;-79
2022/04/18 01:33:21;;;;;;;0.63;0.50;;;5.70;99.90;;;;;;4972976;28;20026;-78
2022/04/18 01:35:47;;;;;;;1.20;0.60;;;5.70;99.90;;;;;;4973097;28;20494;-79
2022/04/18 01:38:13;;;;;;;0.68;0.40;;;5.60;99.90;;;;;;4972834;28;20046;-78
2022/04/18 01:40:39;;;;;;;1.08;0.57;;;5.60;99.90;;;;;;4973119;28;20101;-79
2022/04/18 01:43:05;;;;;;;1.08;0.50;;;5.60;99.90;;;;;;4976739;28;20026;-79
2022/04/18 01:45:31;;;;;;;4.93;0.88;;;5.60;99.90;;;;;;4977338;28;20034;-78
2022/04/18 01:47:57;;;;;;;0.50;0.50;;;5.70;99.90;;;;;;4959633;28;20027;-78
2022/04/18 01:50:23;;;;;;;0.30;0.30;;;5.70;99.90;;;;;;4976951;28;20106;-76
2022/04/18 01:52:49;;;;;;;0.85;0.40;;;5.70;99.90;;;;;;4959569;28;20474;-77
2022/04/18 01:55:15;;;;;;;0.30;0.30;;;5.60;99.90;;;;;;4976775;28;20034;-77
2022/04/18 01:57:41;;;;;;;0.40;0.40;;;5.60;99.90;;;;;;4976748;28;20486;-77
2022/04/18 02:00:07;;;;;;;0.40;0.40;;;5.60;99.90;;;;;;4976645;28;20073;-75
2022/04/18 02:02:33;;;;;;;0.55;0.40;;;5.60;99.90;;;;;;4976687;28;20027;-75
2022/04/18 02:05:01;;;;;;;0.40;0.40;;;5.60;99.90;;;;;;4976779;28;20027;-75
2022/04/18 02:07:28;;;;;;;0.40;0.40;;;5.60;99.90;;;;;;4976479;28;20081;-75
2022/04/18 02:09:55;;;;;;;2.47;0.70;;;5.60;99.90;;;;;;4976891;28;20054;-75
2022/04/18 02:12:20;;;;;;;0.50;0.50;;;5.60;99.90;;;;;;4976405;28;20026;-77
2022/04/18 02:14:47;;;;;;;0.50;0.50;;;5.60;99.90;;;;;;4976527;28;20026;-76
2022/04/18 02:17:13;;;;;;;0.63;0.50;;;5.70;99.90;;;;;;4976307;28;20086;-76
2022/04/18 02:19:39;;;;;;;0.65;0.60;;;5.70;99.90;;;;;;4976663;28;20038;-76
2022/04/18 02:22:05;;;;;;;0.95;0.50;;;5.70;99.90;;;;;;4976297;28;20490;-76
2022/04/18 02:56:00;;;;;;;0.75;0.70;;;5.30;99.90;;;;;;4987132;28;20513;-73
2022/04/18 02:58:25;;;;;;;0.35;0.35;;;5.20;99.90;;;;;;4976998;28;20027;-73
2022/04/18 03:00:51;;;;;;;0.77;0.60;;;5.20;99.90;;;;;;4975769;28;20038;-73
2022/04/18 03:42:15;;;;;;;0.43;0.40;;;4.70;99.90;;;;;;4994848;28;20045;-80
2022/04/18 03:44:43;;;;;;;0.98;0.70;;;4.70;99.90;;;;;;4994156;28;20393;-80
2022/04/18 03:47:10;;;;;;;0.47;0.47;;;4.70;99.90;;;;;;4994357;28;20073;-80
2022/04/18 03:49:36;;;;;;;0.57;0.57;;;4.70;99.90;;;;;;4980422;28;20447;-80
2022/04/18 03:52:02;;;;;;;2.28;0.50;;;4.60;99.90;;;;;;4955799;29;20114;-79
2022/04/18 03:54:28;;;;;;;0.52;0.50;;;4.70;99.90;;;;;;4955447;29;20019;-79
2022/04/18 03:56:54;;;;;;;0.50;0.50;;;4.70;99.90;;;;;;4955445;29;20525;-80
2022/04/18 03:59:21;;;;;;;0.40;0.40;;;4.70;99.90;;;;;;4955345;29;20031;-80
2022/04/18 04:01:47;;;;;;;0.52;0.52;;;4.70;99.90;;;;;;4955336;29;20391;-80
2022/04/18 04:04:12;;;;;;;0.50;0.50;;;4.70;99.90;;;;;;4954608;28;20023;-81
2022/04/18 04:06:39;;;;;;;0.73;0.50;;;4.70;99.90;;;;;;4955455;29;20026;-81
2022/04/18 04:09:05;;;;;;;0.50;0.50;;;4.80;99.90;;;;;;4955519;29;20383;-81
2022/04/18 04:11:31;;;;;;;0.60;0.50;;;4.80;99.90;;;;;;4955582;29;20032;-81
2022/04/18 04:13:57;;;;;;;0.60;0.50;;;4.90;99.90;;;;;;4955260;29;20109;-80
2022/04/18 04:16:23;;;;;;;0.50;0.50;;;5.00;99.90;;;;;;4955427;29;20038;-79
2022/04/18 04:18:51;;;;;;;0.40;0.40;;;5.20;99.90;;;;;;4955160;29;20027;-79
2022/04/18 04:21:17;;;;;;;0.63;0.43;;;5.40;99.90;;;;;;4954911;29;20508;-78
2022/04/18 04:23:43;;;;;;;0.50;0.50;;;5.80;99.90;;;;;;4954750;29;20031;-80
2022/04/18 04:26:09;;;;;;;0.52;0.50;;;6.10;99.90;;;;;;4955241;29;20475;-79
2022/04/18 04:28:35;;;;;;;0.50;0.50;;;6.40;99.90;;;;;;4954731;29;20023;-79
2022/04/18 04:31:04;;;;;;;0.55;0.45;;;6.80;99.90;;;;;;4954754;29;20031;-68
2022/04/18 04:33:32;;;;;;;0.65;0.30;;;7.10;99.90;;;;;;4954694;29;20522;-73
2022/04/18 04:35:59;;;;;;;0.35;0.35;;;7.40;99.90;;;;;;4954835;29;20066;-72
2022/04/18 04:38:25;;;;;;;1.95;0.50;;;7.80;99.90;;;;;;4954400;28;20047;-72
2022/04/18 04:40:55;;;;;;;0.40;0.40;;;8.90;99.90;;;;;;4921558;29;20039;-70
2022/04/18 04:43:25;;;;;;;0.75;0.50;;;9.80;99.90;;;;;;4954833;29;20199;-70
2022/04/18 04:45:51;;;;;;;0.82;0.45;;;9.30;99.90;;;;;;4954288;29;20505;-75
2022/04/18 04:48:17;;;;;;;0.50;0.50;;;8.80;99.90;;;;;;4954322;29;20027;-72
2022/04/18 04:50:42;;;;;;;1.30;0.50;;;8.40;99.90;;;;;;4970087;28;20035;-71
2022/04/18 04:53:08;;;;;;;0.50;0.50;;;8.20;99.90;;;;;;4972868;28;20501;-71
2022/04/18 04:55:37;;;;;;;0.52;0.50;;;8.10;99.90;;;;;;4970447;28;20556;-72
2022/04/18 04:58:03;;;;;;;0.93;0.40;;;8.10;99.90;;;;;;4972835;28;20023;-72
2022/04/18 05:00:28;;;;;;;0.40;0.40;;;8.00;99.90;;;;;;4973030;28;20050;-69
2022/04/18 05:02:57;;;;;;;0.40;0.40;;;8.00;99.90;;;;;;4972819;28;20057;-74
2022/04/18 05:05:23;;;;;;;0.77;0.50;;;8.00;99.90;;;;;;4972624;28;20378;-72
2022/04/18 05:07:49;;;;;;;1.13;0.50;;;8.00;99.90;;;;;;4972839;28;20030;-71
2022/04/18 05:10:15;;;;;;;0.60;0.60;;;7.90;99.90;;;;;;4972723;28;20170;-71
2022/04/18 05:12:42;;;;;;;1.70;0.50;;;7.90;99.90;;;;;;4969778;28;20105;-70
2022/04/18 05:15:08;;;;;;;0.45;0.45;;;7.80;99.90;;;;;;4965801;28;20086;-70
2022/04/18 05:17:34;;;;;;;0.75;0.50;;;7.70;99.90;;;;;;4972528;28;20363;-73
2022/04/18 05:20:02;;;;;;;0.50;0.50;;;7.70;99.90;;;;;;4952367;28;20035;-77
2022/04/18 05:22:29;;;;;;;0.40;0.40;;;7.60;99.90;;;;;;4972867;28;20027;-73
2022/04/18 05:24:57;;;;;;;0.85;0.50;;;7.60;99.90;;;;;;4973081;28;20019;-71
2022/04/18 05:27:23;;;;;;;0.70;0.60;;;7.60;99.90;;;;;;4973334;28;20058;-72
2022/04/18 05:29:51;;;;;;;2.25;0.70;;;7.60;99.90;;;;;;4955748;28;20031;-72
2022/04/18 05:32:16;;;;;;;0.40;0.40;;;7.70;99.90;;;;;;4956269;28;20023;-72
2022/04/18 05:34:42;;;;;;;0.40;0.40;;;7.70;99.90;;;;;;4972984;28;20536;-72
2022/04/18 05:37:08;;;;;;;0.40;0.40;;;7.80;99.90;;;;;;4973009;28;20052;-72
2022/04/18 05:39:34;;;;;;;0.50;0.50;;;7.80;99.90;;;;;;4972954;28;20051;-73
2022/04/18 05:42:02;;;;;;;0.38;0.38;;;8.00;99.90;;;;;;4972994;28;20453;-73
2022/04/18 05:44:28;;;;;;;0.40;0.40;;;8.20;99.90;;;;;;4972972;28;20023;-73
2022/04/18 05:46:53;;;;;;;0.30;0.30;;;8.30;99.90;;;;;;4973204;28;20030;-73
2022/04/18 05:49:19;;;;;;;1.17;0.35;;;8.40;99.90;;;;;;4972950;28;20433;-73
2022/04/18 05:51:45;;;;;;;0.32;0.32;;;8.40;99.90;;;;;;4972886;28;20031;-73
2022/04/18 05:54:11;;;;;;;1.00;0.40;;;8.50;99.90;;;;;;4972924;28;20030;-73
2022/04/18 05:56:39;;;;;;;0.88;0.40;;;8.60;99.90;;;;;;4972996;28;20026;-73
2022/04/18 05:59:05;;;;;;;0.40;0.40;;;8.70;99.90;;;;;;4972640;28;20027;-77
2022/04/18 06:01:31;;;;;;;1.85;0.40;;;8.80;99.90;;;;;;4972846;28;20098;-77
2022/04/18 06:03:56;;;;;;;0.45;0.40;;;8.90;99.90;;;;;;4972651;28;20030;-80
2022/04/18 06:06:22;;;;;;;2.88;0.60;;;9.00;99.90;;;;;;4972974;28;20050;-80
2022/04/18 06:08:48;;;;;;;2.15;0.43;;;9.60;99.90;;;;;;4972592;28;20027;-78
2022/04/18 06:11:14;;;;;;;5.07;3.88;;;10.20;99.90;;;;;;4972352;28;20023;-79
2022/04/18 06:13:40;;;;;;;0.63;0.63;;;10.50;99.90;;;;;;4957478;28;20035;-73
2022/04/18 06:16:06;;;;;;;0.40;0.40;;;10.70;99.70;;;;;;4953345;29;20030;-76
2022/04/18 06:18:32;;;;;;;0.40;0.40;;;10.90;98.00;;;;;;4970871;28;20039;-73
2022/04/18 06:20:58;;;;;;;0.43;0.43;;;10.90;97.00;;;;;;4987379;28;20038;-73
2022/04/18 06:23:24;;;;;;;0.57;0.50;;;11.00;96.20;;;;;;4992002;28;20114;-84
2022/04/18 06:25:50;;;;;;;0.40;0.40;;;11.20;95.10;;;;;;4991911;28;20034;-75
2022/04/18 06:28:16;;;;;;;1.52;0.40;;;11.20;94.40;;;;;;4976600;28;20105;-75
2022/04/18 06:30:42;;;;;;;0.30;0.30;;;11.30;94.00;;;;;;4995702;28;20448;-76
2022/04/18 06:33:12;;;;;;;0.40;0.40;;;11.20;93.80;;;;;;4995727;28;20497;-75
2022/04/18 06:35:41;;;;;;;0.45;0.45;;;11.30;93.80;;;;;;4995973;28;20034;-76
2022/04/18 06:38:08;;;;;;;6.10;0.68;;;11.40;93.40;;;;;;4995578;28;20237;-75
2022/04/18 06:40:34;;;;;;;1.20;0.50;;;11.50;93.00;;;;;;4995811;28;20118;-75
2022/04/18 06:42:59;;;;;;;0.40;0.40;;;11.60;92.60;;;;;;4995861;28;20629;-75
2022/04/18 06:45:26;;;;;;;0.65;0.65;;;11.80;92.20;;;;;;4995754;28;20526;-75
2022/04/18 06:47:52;;;;;;;4.53;1.00;;;11.90;91.60;;;;;;4995673;28;20428;-76
2022/04/18 06:50:18;;;;;;;2.53;1.20;;;12.00;91.30;;;;;;4995669;28;20026;-71
2022/04/18 06:52:49;;;;;;;5.40;1.02;;;12.20;90.90;;;;;;4995278;28;20037;-73
2022/04/18 06:55:16;;;;;;;5.00;1.02;;;12.30;90.50;;;;;;4995566;28;20034;-76
2022/04/18 06:57:42;;;;;;;3.28;0.75;;;12.50;90.50;;;;;;4990100;28;20090;-76
2022/04/18 07:00:08;;;;;;;3.70;0.73;;;12.50;89.50;;;;;;4974993;28;20035;-77
2022/04/18 07:02:34;;;;;;;1.00;0.38;;;12.50;89.20;;;;;;4975779;28;20041;-79
2022/04/18 07:05:00;;;;;;;6.88;0.40;;;12.50;88.60;;;;;;4975512;28;20027;-78
2022/04/18 07:07:26;;;;;;;0.50;0.43;;;12.50;88.00;;;;;;4975675;28;20027;-77
2022/04/18 07:09:52;;;;;;;1.95;0.50;;;12.50;87.50;;;;;;4975702;28;20378;-84
2022/04/18 07:12:22;;;;;;;0.20;0.20;;;12.60;87.10;;;;;;4958343;28;20049;-82
2022/04/18 07:14:50;;;;;;;0.82;0.40;;;12.60;86.40;;;;;;4975375;28;20026;-72
2022/04/18 07:17:15;;;;;;;0.93;0.50;;;12.70;89.90;;;;;;4975499;28;20113;-72
2022/04/18 07:19:41;;;;;;;0.73;0.40;;;12.80;90.80;;;;;;4975244;28;20203;-69
2022/04/18 07:22:07;;;;;;;5.35;0.65;;;13.40;99.90;;;;;;4975233;28;20105;-70
2022/04/18 07:24:33;;;;;;;3.97;0.50;;;14.20;97.20;;;;;;4975222;28;20027;-70
2022/04/18 07:27:01;;;;;;;0.85;0.38;;;14.30;91.10;;;;;;4975425;28;20522;-70
2022/04/18 07:29:27;;;;;;;2.70;0.50;;;14.10;87.60;;;;;;4975246;28;20027;-70
2022/04/18 07:31:53;;;;;;;1.45;0.40;;;13.90;86.70;;;;;;4975047;28;20700;-70
2022/04/18 07:34:20;;;;;;;3.15;0.30;;;13.70;85.80;;;;;;4975199;28;20027;-70
2022/04/18 07:36:46;;;;;;;1.98;0.30;;;13.60;86.70;;;;;;4975090;28;20106;-70
2022/04/18 07:39:12;;;;;;;3.40;0.75;;;13.60;86.80;;;;;;4973797;28;20479;-70
2022/04/18 07:41:37;;;;;;;1.75;0.40;;;13.60;87.20;;;;;;4975269;28;20113;-72
2022/04/18 07:44:03;;;;;;;1.00;0.38;;;13.60;85.80;;;;;;4974776;28;20516;-74
2022/04/18 07:46:30;;;;;;;9.85;0.50;;;13.50;85.70;;;;;;4957324;28;20038;-78
2022/04/18 07:48:56;;;;;;;0.52;0.30;;;13.40;83.70;;;;;;4974617;28;20030;-77
2022/04/18 07:51:32;;;;;;;0.60;0.28;;;13.30;83.50;;;;;;4974913;28;20109;-77
2022/04/18 07:53:58;;;;;;;0.40;0.30;;;13.20;83.40;;;;;;4974633;28;20110;-77
2022/04/18 07:56:25;;;;;;;14.57;0.90;;;13.10;83.20;;;;;;4974850;28;20046;-78
2022/04/18 07:58:51;;;;;;;2.45;0.40;;;13.20;83.60;;;;;;4974794;28;20038;-78
2022/04/18 08:01:18;;;;;;;0.30;0.30;;;13.10;83.30;;;;;;4957487;28;20054;-78
2022/04/18 08:03:44;;;;;;;2.28;0.20;;;13.10;83.50;;;;;;4974852;28;20027;-78
2022/04/18 08:06:10;;;;;;;1.27;0.32;;;13.10;83.90;;;;;;4974654;28;20457;-78
2022/04/18 08:08:36;;;;;;;4.13;0.38;;;13.10;84.20;;;;;;4974256;28;20022;-78
2022/04/18 08:11:01;;;;;;;3.85;0.40;;;13.00;84.20;;;;;;4974284;28;20053;-77
2022/04/18 08:13:27;;;;;;;0.98;0.40;;;13.10;84.30;;;;;;4974475;28;20026;-77
2022/04/18 08:15:53;;;;;;;3.10;0.35;;;13.10;84.00;;;;;;4974485;28;20130;-78
2022/04/18 08:18:20;;;;;;;2.65;0.50;;;13.20;84.30;;;;;;4974423;28;20110;-78
2022/04/18 08:20:45;;;;;;;3.55;0.50;;;13.20;83.70;;;;;;4974129;28;20065;-78
2022/04/18 08:23:11;;;;;;;0.90;0.22;;;13.20;83.70;;;;;;4974337;28;20093;-77
2022/04/18 08:25:37;;;;;;;0.85;0.40;;;13.20;84.30;;;;;;4974262;28;20502;-78
2022/04/18 08:28:03;;;;;;;3.75;0.25;;;13.30;83.70;;;;;;4973953;28;20045;-78
2022/04/18 08:30:29;;;;;;;2.20;0.45;;;13.40;84.00;;;;;;4974103;28;20079;-78
2022/04/18 08:32:54;;;;;;;3.42;0.40;;;13.40;83.40;;;;;;4974169;28;20026;-78
2022/04/18 08:35:20;;;;;;;0.22;0.22;;;13.50;83.20;;;;;;4956726;28;20030;-78
2022/04/18 08:37:46;;;;;;;2.33;0.40;;;13.50;83.30;;;;;;4973762;28;20066;-78
2022/04/18 08:40:13;;;;;;;1.35;0.20;;;13.60;82.40;;;;;;4973630;28;20031;-77
2022/04/18 08:42:40;;;;;;;0.95;0.28;;;13.60;82.70;;;;;;4973913;28;20572;-77
2022/04/18 08:45:09;;;;;;;2.47;0.28;;;13.70;82.00;;;;;;4973796;28;20101;-78
2022/04/18 08:53:24;;;;;;;1.42;0.30;;;13.90;81.90;;;;;;4974121;28;20101;-77
2022/04/18 08:55:50;;;;;;;2.55;0.40;;;13.90;80.90;;;;;;4973571;28;20027;-77
2022/04/18 08:58:16;;;;;;;3.75;0.32;;;13.90;80.70;;;;;;4973834;28;20486;-77
2022/04/18 09:00:42;;;;;;;10.82;0.60;;;14.00;81.50;;;;;;4973546;28;20053;-78
2022/04/18 09:03:08;;;;;;;3.35;0.40;;;14.00;81.00;;;;;;4973486;28;20550;-78
2022/04/18 09:05:37;;;;;;;2.72;0.30;;;14.10;81.10;;;;;;4972217;28;20121;-77
2022/04/18 09:08:08;;;;;;;1.25;0.30;;;14.10;80.30;;;;;;4955939;28;20027;-78
2022/04/18 09:10:35;;;;;;;0.68;0.32;;;14.30;79.50;;;;;;4973431;28;20031;-78
2022/04/18 09:13:09;;;;;;;3.38;0.40;;;14.30;79.20;;;;;;4973285;28;20033;-78
2022/04/18 09:15:41;;;;;;;0.60;0.30;;;14.40;79.00;;;;;;4973436;28;20025;-77
2022/04/18 09:18:15;;;;;;;0.30;0.30;;;14.40;78.90;;;;;;4973566;28;20027;-77
2022/04/18 09:20:53;;;;;;;2.83;0.20;;;14.40;78.50;;;;;;4973601;28;20034;-78
2022/04/18 09:23:23;;;;;;;0.20;0.20;;;14.50;78.60;;;;;;4973419;28;20019;-78
2022/04/18 09:26:09;;;;;;;0.27;0.27;;;14.50;79.40;;;;;;4972159;28;20030;-78
2022/04/18 09:28:38;;;;;;;0.95;0.30;;;14.60;79.60;;;;;;4972994;28;20041;-78
2022/04/18 09:31:07;;;;;;;0.20;0.20;;;14.60;78.90;;;;;;4973120;28;20018;-78
2022/04/18 09:33:42;;;;;;;0.20;0.20;;;14.70;78.60;;;;;;4973265;28;20022;-78
2022/04/18 09:36:17;;;;;;;1.33;0.30;;;14.70;79.20;;;;;;4973052;28;20035;-78
2022/04/18 09:38:52;;;;;;;0.20;0.20;;;14.80;78.50;;;;;;4972873;28;20047;-78
2022/04/18 09:41:37;;;;;;;0.47;0.20;;;14.80;78.20;;;;;;4973171;28;20031;-78
2022/04/18 09:44:04;;;;;;;36.78;3.72;;;14.80;77.20;;;;;;4972613;28;20101;-78
2022/04/18 09:46:30;;;;;;;3.20;0.30;;;14.90;77.60;;;;;;4956288;28;20030;-78
2022/04/18 09:49:02;;;;;;;0.35;0.20;;;14.90;77.10;;;;;;4971609;28;20441;-81
2022/04/18 09:51:29;;;;;;;0.20;0.20;;;15.00;77.00;;;;;;4973059;28;20043;-78
2022/04/18 09:53:58;;;;;;;2.05;0.20;;;15.00;76.60;;;;;;4955498;28;20367;-77
2022/04/18 09:56:26;;;;;;;7.00;0.55;;;15.00;75.80;;;;;;4973005;28;20483;-79
2022/04/18 09:58:55;;;;;;;10.30;0.50;;;15.00;76.00;;;;;;4973076;28;20038;-78
2022/04/18 10:01:22;;;;;;;7.35;0.30;;;15.10;76.70;;;;;;4972769;28;20516;-78
2022/04/18 10:03:52;;;;;;;19.90;1.10;;;15.20;75.90;;;;;;4976032;28;20065;-78
2022/04/18 10:06:19;;;;;;;21.77;1.10;;;15.30;75.60;;;;;;4976265;28;20031;-74
2022/04/18 10:08:45;;;;;;;19.15;1.80;;;15.70;78.70;;;;;;4976708;28;20035;-73
2022/04/18 10:11:11;;;;;;;6.57;0.80;;;16.10;74.40;;;;;;4976473;28;20386;-74
2022/04/18 10:13:38;;;;;;;14.32;0.75;;;16.10;73.10;;;;;;4976631;28;20023;-74
2022/04/18 10:16:05;;;;;;;16.73;0.85;;;15.90;72.70;;;;;;4976688;28;20050;-74
2022/04/18 10:18:38;;;;;;;16.42;1.42;;;15.90;72.30;;;;;;4976602;28;20023;-74
2022/04/18 10:21:07;;;;;;;2.40;0.40;;;15.90;71.80;;;;;;4976301;28;20038;-74
2022/04/18 10:23:51;;;;;;;6.18;0.50;;;15.90;74.40;;;;;;4976532;28;20018;-74
2022/04/18 10:26:51;;;;;;;7.47;0.57;;;16.10;72.10;;;;;;4958964;28;20027;-73
2022/04/18 10:29:30;;;;;;;17.80;1.13;;;16.10;70.60;;;;;;4979993;28;20542;-73
2022/04/18 10:32:03;;;;;;;1.35;0.20;;;16.10;70.60;;;;;;4982070;28;20483;-73
2022/04/18 10:34:31;;;;;;;0.45;0.20;;;16.10;71.00;;;;;;4976494;28;20110;-73
2022/04/18 10:37:00;;;;;;;0.70;0.30;;;16.00;70.30;;;;;;4976060;28;20118;-73
2022/04/18 10:39:38;;;;;;;8.10;0.50;;;15.90;70.20;;;;;;4976116;28;20481;-73
2022/04/18 10:42:27;;;;;;;9.25;0.70;;;15.90;70.40;;;;;;4976081;28;20038;-74
2022/04/18 10:44:59;;;;;;;5.15;0.50;;;15.90;70.70;;;;;;4976264;28;20502;-73
2022/04/18 10:47:26;;;;;;;3.95;0.52;;;15.90;70.20;;;;;;4976216;28;20031;-73
2022/04/18 10:50:20;;;;;;;2.03;0.30;;;16.00;70.00;;;;;;4976043;28;20449;-73
2022/04/18 10:53:23;;;;;;;1.88;0.40;;;16.00;68.60;;;;;;4976179;28;20382;-73
2022/04/18 10:55:52;;;;;;;3.13;0.40;;;16.00;68.30;;;;;;4975528;28;20019;-74
2022/04/18 10:58:26;;;;;;;2.90;0.50;;;16.00;68.00;;;;;;4975664;28;20038;-74
2022/04/18 11:00:53;;;;;;;7.97;0.40;;;16.00;67.50;;;;;;4975728;28;20038;-74
2022/04/18 11:03:50;;;;;;;5.32;0.50;;;16.00;67.40;;;;;;4975694;28;20046;-74
2022/04/18 11:06:16;;;;;;;8.35;0.52;;;16.00;66.40;;;;;;4975481;28;20023;-74
2022/04/18 11:08:56;;;;;;;3.05;0.40;;;16.00;66.60;;;;;;4975725;28;20553;-74
2022/04/18 11:11:21;;;;;;;;;;;16.00;65.00;;;;;;4975996;28;20025;-74
2022/04/18 11:14:26;;;;;;;16.75;0.93;;;16.00;62.70;;;;;;4974870;28;19906;-74
2022/04/18 11:16:54;;;;;;;3.13;0.20;;;16.00;65.40;;;;;;4956108;28;20077;-74
2022/04/18 11:19:24;;;;;;;0.70;0.40;;;16.00;64.70;;;;;;4975373;28;20031;-74
2022/04/18 11:21:56;;;;;;;;;;;16.10;64.40;;;;;;4975767;28;20418;-74
2022/04/18 11:24:41;;;;;;;2.42;0.43;;;16.00;63.60;;;;;;4975487;28;20269;-74
2022/04/18 11:27:11;;;;;;;3.33;0.38;;;16.10;64.40;;;;;;4975195;28;20401;-74
2022/04/18 11:29:45;;;;;;;2.63;0.40;;;16.10;63.50;;;;;;4975250;28;20019;-74
2022/04/18 11:32:16;;;;;;;1.67;0.30;;;16.10;61.50;;;;;;4975363;28;20031;-74
2022/04/18 11:34:45;;;;;;;0.20;0.20;;;16.10;60.30;;;;;;4975158;28;20406;-74
2022/04/18 11:37:13;;;;;;;3.97;0.63;;;16.10;60.20;;;;;;4975110;28;20031;-74
2022/04/18 11:39:49;;;;;;;0.95;0.32;;;16.10;60.30;;;;;;4974863;28;20528;-74
2022/04/18 11:42:17;;;;;;;0.77;0.40;;;16.10;60.20;;;;;;4975199;28;20039;-74
2022/04/18 11:44:44;;;;;;;0.60;0.30;;;16.10;60.80;;;;;;4957525;28;20482;-74
2022/04/18 11:47:12;;;;;;;2.03;0.32;;;16.20;60.80;;;;;;4974557;28;20035;-76
2022/04/18 11:49:39;;;;;;;2.13;0.40;;;16.10;59.60;;;;;;4974972;28;20113;-82
2022/04/18 11:52:06;;;;;;;1.55;0.40;;;16.40;69.10;;;;;;4974682;28;20054;-77
2022/04/18 11:54:32;;;;;;;1.00;0.35;;;16.60;60.50;;;;;;4974949;28;20035;-78
2022/04/18 11:57:03;;;;;;;1.75;0.30;;;16.50;58.10;;;;;;4975027;28;20434;-77
2022/04/18 11:59:30;;;;;;;0.93;0.40;;;16.30;58.30;;;;;;4974680;28;20077;-77
2022/04/18 12:07:29;;;;;;;8.82;0.50;;;16.30;58.70;;;;;;4974679;28;20118;-78
2022/04/18 12:09:54;;;;;;;0.32;0.30;;;16.30;58.50;;;;;;4974460;28;20042;-77
2022/04/18 12:12:31;;;;;;;3.95;0.57;;;16.30;58.60;;;;;;4974460;28;20035;-77
2022/04/18 12:15:05;;;;;;;9.30;1.35;;;16.30;58.50;;;;;;4974572;28;20031;-77
2022/04/18 12:17:34;;;;;;;12.75;1.08;;;16.30;60.10;;;;;;4957101;28;20467;-77
2022/04/18 12:20:28;;;;;;;25.63;1.42;;;16.30;61.00;;;;;;4974189;28;20553;-77
2022/04/18 12:22:59;;;;;;;16.90;1.55;;;16.20;62.50;;;;;;4974246;28;20058;-78
2022/04/18 12:25:30;;;;;;;6.90;0.50;;;16.20;63.10;;;;;;4973769;28;20106;-77
2022/04/18 12:27:58;;;;;;;7.93;1.83;;;16.20;63.10;;;;;;4974312;28;20054;-77
2022/04/18 12:30:26;;;;;;;12.73;1.10;;;16.10;63.50;;;;;;4974212;28;20106;-77
2022/04/18 12:32:54;;;;;;;9.80;1.35;;;16.10;64.20;;;;;;4974056;28;20031;-78
2022/04/18 12:35:43;;;;;;;26.33;1.70;;;16.20;64.70;;;;;;4974127;28;20031;-77
2022/04/18 12:38:10;;;;;;;12.48;1.08;;;16.20;64.00;;;;;;4973565;28;20055;-77
2022/04/18 12:40:53;;;;;;;12.88;1.20;;;16.20;64.40;;;;;;4973807;28;20505;-77
2022/04/18 12:43:18;;;;;;;9.05;1.88;;;16.20;64.20;;;;;;4973826;28;20050;-78
2022/04/18 12:45:52;;;;;;;20.35;1.10;;;16.20;63.90;;;;;;4974055;28;20474;-77
2022/04/18 12:48:28;;;;;;;16.15;1.30;;;16.20;63.30;;;;;;4973623;28;20487;-77
2022/04/18 12:50:56;;;;;;;16.88;1.35;;;16.20;63.60;;;;;;4973948;28;20034;-77
2022/04/18 12:53:45;;;;;;;17.52;1.40;;;16.20;63.50;;;;;;4973864;28;20045;-78
2022/04/18 12:56:11;;;;;;;8.23;0.98;;;16.20;63.70;;;;;;4973636;28;20102;-77
2022/04/18 12:58:41;;;;;;;17.33;1.33;;;16.20;63.60;;;;;;4973681;28;20031;-78
2022/04/18 13:01:07;;;;;;;;;;;16.20;63.00;;;;;;4974118;28;20452;-77
2022/04/18 13:03:44;;;;;;;9.07;1.50;;;16.20;63.20;;;;;;4973873;28;19913;-78
2022/04/18 13:06:10;;;;;;;10.73;0.77;;;16.20;62.80;;;;;;4973369;28;20390;-77
2022/04/18 13:08:38;;;;;;;6.63;0.80;;;16.20;63.40;;;;;;4973417;28;20023;-77
2022/04/18 13:11:04;;;;;;;7.45;0.90;;;16.20;62.70;;;;;;4973572;28;20027;-77
2022/04/18 13:13:30;;;;;;;8.48;0.70;;;16.20;62.70;;;;;;4973357;28;20189;-77
2022/04/18 13:15:55;;;;;;;28.25;1.52;;;16.20;62.70;;;;;;4973283;28;20110;-79
2022/04/18 13:18:25;;;;;;;22.33;3.08;;;16.50;64.30;;;;;;4973514;28;20019;-79
2022/04/18 13:20:51;;;;;;;10.90;0.80;;;16.50;62.20;;;;;;4973089;28;20027;-79
2022/04/18 13:23:17;;;;;;;5.97;1.05;;;16.50;61.80;;;;;;4973264;28;20043;-78
2022/04/18 13:25:45;;;;;;;19.90;1.85;;;16.40;61.60;;;;;;4972677;28;20101;-76
2022/04/18 13:28:10;;;;;;;9.98;0.90;;;16.30;61.50;;;;;;4960058;28;20034;-77
2022/04/18 13:30:39;;;;;;;17.92;0.90;;;16.30;59.00;;;;;;4965437;28;20030;-77
2022/04/18 13:33:09;;;;;;;8.00;0.65;;;16.30;58.00;;;;;;4973433;28;20026;-75
2022/04/18 13:38:21;;;;;;;8.85;0.60;;;16.30;58.40;;;;;;4972053;28;20066;-81
2022/04/18 13:40:47;;;;;;;9.52;1.02;;;16.30;60.00;;;;;;4972817;28;20406;-82
2022/04/18 13:43:14;;;;;;;5.60;0.50;;;16.30;59.50;;;;;;4972955;28;20035;-84
2022/04/18 13:45:40;;;;;;;2.58;0.60;;;16.30;58.20;;;;;;4966759;28;20019;-76
2022/04/18 13:48:06;;;;;;;15.10;1.33;;;16.30;57.80;;;;;;4972380;28;20599;-80
2022/04/18 13:50:32;;;;;;;11.68;1.10;;;16.30;59.00;;;;;;4973009;28;20042;-78
2022/04/18 13:52:58;;;;;;;4.20;0.60;;;16.40;61.30;;;;;;4972981;28;20438;-78
2022/04/18 13:55:24;;;;;;;13.95;1.95;;;16.40;61.90;;;;;;4972771;28;20034;-78
2022/04/18 13:57:50;;;;;;;10.85;1.33;;;16.30;62.30;;;;;;4972895;28;20019;-78
2022/04/18 14:00:16;;;;;;;33.78;3.38;;;16.30;62.60;;;;;;4972529;28;20038;-78
2022/04/18 14:02:42;;;;;;;56.80;11.68;;;16.20;64.80;;;;;;4972886;28;20114;-77
2022/04/18 14:05:08;;;;;;;37.67;4.20;;;16.10;69.80;;;;;;4972735;28;20109;-77
2022/04/18 14:07:33;;;;;;;8.52;1.15;;;16.10;68.70;;;;;;4972670;28;20098;-77
2022/04/18 14:09:59;;;;;;;6.88;1.00;;;16.00;67.80;;;;;;4972813;28;20081;-74
2022/04/18 14:12:25;;;;;;;7.15;1.10;;;16.00;67.60;;;;;;4973031;28;20042;-74
2022/04/18 14:20:28;;;;;;;8.30;0.90;;;16.00;66.20;;;;;;4972738;28;20042;-78
2022/04/18 14:22:54;;;;;;;22.27;1.52;;;16.00;66.20;;;;;;4972778;28;20490;-78
2022/04/18 14:25:21;;;;;;;21.60;2.63;;;16.00;66.70;;;;;;4972450;28;20031;-78
2022/04/18 14:27:47;;;;;;;27.08;2.17;;;15.90;65.90;;;;;;4972948;28;20031;-78
2022/04/18 14:30:14;;;;;;;18.42;1.58;;;15.90;67.90;;;;;;4972751;28;20035;-78
2022/04/18 14:32:44;;;;;;;6.47;0.52;;;16.00;67.20;;;;;;4972631;28;20031;-80